createdAt,value
2024-05-09T00:00:35.835Z,79.61
2024-05-09T00:03:10.603Z,79.41
2024-05-09T00:05:40.239Z,79.55
2024-05-09T00:08:09.876Z,79.65
2024-05-09T00:10:39.066Z,79.55
2024-05-09T00:13:07.693Z,79.82
2024-05-09T00:15:35.341Z,79.73
2024-05-09T00:18:03.388Z,79.22
2024-05-09T00:20:37.567Z,79.57
2024-05-09T00:23:07.975Z,79.91
2024-05-09T00:25:35.491Z,79.65
2024-05-09T00:28:02.461Z,79.71
2024-05-09T00:30:34.347Z,79.52
2024-05-09T00:33:07.577Z,80.01
2024-05-09T00:35:35.713Z,79.51
2024-05-09T00:38:02.673Z,79.73
2024-05-09T00:40:40.691Z,79.51
2024-05-09T00:43:10.585Z,79.57
2024-05-09T00:45:37.463Z,79.69
2024-05-09T00:48:07.706Z,79.63
2024-05-09T00:50:38.133Z,79.84
2024-05-09T00:53:10.982Z,79.50
2024-05-09T00:55:39.256Z,79.75
2024-05-09T00:58:09.163Z,79.92
2024-05-09T01:00:39.757Z,80.18
2024-05-09T01:03:12.599Z,80.65
2024-05-09T01:05:41.241Z,80.38
2024-05-09T01:08:09.130Z,80.48
2024-05-09T01:10:37.306Z,80.68
2024-05-09T01:13:04.964Z,80.66
2024-05-09T01:15:31.749Z,80.42
2024-05-09T01:18:01.159Z,80.54
2024-05-09T01:20:37.405Z,80.63
2024-05-09T01:23:09.604Z,80.90
2024-05-09T01:25:36.764Z,80.95
2024-05-09T01:28:03.625Z,80.45
2024-05-09T01:30:34.897Z,81.12
2024-05-09T01:33:05.220Z,81.25
2024-05-09T01:35:32.809Z,81.34
2024-05-09T01:37:59.485Z,81.44
2024-05-09T01:40:36.158Z,81.36
2024-05-09T01:43:06.035Z,81.58
2024-05-09T01:45:32.800Z,81.49
2024-05-09T01:47:59.759Z,81.65
2024-05-09T01:50:37.270Z,82.55
2024-05-09T01:53:08.019Z,82.34
2024-05-09T01:55:34.701Z,82.54
2024-05-09T01:58:01.390Z,82.34
2024-05-09T02:00:37.925Z,82.28
2024-05-09T02:03:15.360Z,82.41
2024-05-09T02:05:49.505Z,82.68
2024-05-09T02:08:19.027Z,82.74
2024-05-09T02:10:47.252Z,82.14
2024-05-09T02:13:14.921Z,82.52
2024-05-09T02:15:41.686Z,82.30
2024-05-09T02:18:08.999Z,82.03
2024-05-09T02:20:38.991Z,81.88
2024-05-09T02:23:06.630Z,81.80
2024-05-09T02:25:33.756Z,81.38
2024-05-09T02:28:00.660Z,81.48
2024-05-09T02:30:37.776Z,81.58
2024-05-09T02:33:08.711Z,81.60
2024-05-09T02:35:36.253Z,81.37
2024-05-09T02:38:03.557Z,81.18
2024-05-09T02:40:36.678Z,80.79
2024-05-09T02:43:10.529Z,80.73
2024-05-09T02:45:39.123Z,80.78
2024-05-09T02:48:07.188Z,81.41
2024-05-09T02:50:38.423Z,81.07
2024-05-09T02:53:11.299Z,81.11
2024-05-09T02:55:38.921Z,81.10
2024-05-09T02:58:09.389Z,80.91
2024-05-09T03:00:40.214Z,81.45
2024-05-09T03:03:11.440Z,81.01
2024-05-09T03:05:40.877Z,81.34
2024-05-09T03:08:07.712Z,81.52
2024-05-09T03:10:36.814Z,80.72
2024-05-09T03:13:09.175Z,81.18
2024-05-09T03:15:36.075Z,80.86
2024-05-09T03:18:03.340Z,80.54
2024-05-09T03:20:34.345Z,80.32
2024-05-09T03:23:03.278Z,81.22
2024-05-09T03:25:30.122Z,80.65
2024-05-09T03:27:56.885Z,80.17
2024-05-09T03:30:38.573Z,80.43
2024-05-09T03:33:19.647Z,80.71
2024-05-09T03:35:48.237Z,80.91
2024-05-09T03:38:15.412Z,80.46
2024-05-09T03:41:05.933Z,80.72
2024-05-09T03:43:32.507Z,80.41
2024-05-09T03:45:59.084Z,81.09
2024-05-09T03:48:25.919Z,80.88
2024-05-09T03:50:52.817Z,81.09
2024-05-09T03:53:19.542Z,81.22
2024-05-09T03:55:46.247Z,80.97
2024-05-09T03:58:14.454Z,80.63
2024-05-09T04:00:42.438Z,81.01
2024-05-09T04:03:11.398Z,81.38
2024-05-09T04:05:41.138Z,81.06
2024-05-09T04:08:09.108Z,81.36
2024-05-09T04:10:36.005Z,81.86
2024-05-09T04:13:03.564Z,81.89
2024-05-09T04:15:30.718Z,81.80
2024-05-09T04:17:57.782Z,81.83
2024-05-09T04:20:34.263Z,81.97
2024-05-09T04:23:06.831Z,81.94
2024-05-09T04:25:33.960Z,82.17
2024-05-09T04:28:00.637Z,82.10
2024-05-09T04:30:36.351Z,82.40
2024-05-09T04:33:07.673Z,82.26
2024-05-09T04:35:36.048Z,82.70
2024-05-09T04:38:02.900Z,82.05
2024-05-09T04:40:34.121Z,82.06
2024-05-09T04:43:03.933Z,82.36
2024-05-09T04:45:30.749Z,82.73
2024-05-09T04:47:57.913Z,82.63
2024-05-09T04:50:32.726Z,82.69
2024-05-09T04:53:03.754Z,82.65
2024-05-09T04:55:30.584Z,82.61
2024-05-09T04:57:57.180Z,82.74
2024-05-09T05:00:32.458Z,83.11
2024-05-09T05:03:07.230Z,82.54
2024-05-09T05:05:37.334Z,83.29
2024-05-09T05:08:04.301Z,83.13
2024-05-09T05:10:36.036Z,83.40
2024-05-09T05:13:17.970Z,83.15
2024-05-09T05:15:55.339Z,83.67
2024-05-09T05:18:22.794Z,83.33
2024-05-09T05:20:49.811Z,83.23
2024-05-09T05:23:20.427Z,83.75
2024-05-09T05:25:48.668Z,83.52
2024-05-09T05:28:19.111Z,84.25
2024-05-09T05:30:46.333Z,84.03
2024-05-09T05:33:14.946Z,84.59
2024-05-09T05:35:42.262Z,84.43
2024-05-09T05:38:09.899Z,84.85
2024-05-09T05:40:38.442Z,84.76
2024-05-09T05:43:08.612Z,85.06
2024-05-09T05:45:35.633Z,85.10
2024-05-09T05:48:06.618Z,84.77
2024-05-09T05:50:36.746Z,85.33
2024-05-09T05:53:06.467Z,85.63
2024-05-09T05:55:33.377Z,85.51
2024-05-09T05:58:01.569Z,85.83
2024-05-09T06:00:34.801Z,85.58
2024-05-09T06:03:05.711Z,85.72
2024-05-09T06:05:32.988Z,85.53
2024-05-09T06:07:59.858Z,85.85
2024-05-09T06:10:36.730Z,85.75
2024-05-09T06:13:05.906Z,86.20
2024-05-09T06:15:32.495Z,85.77
2024-05-09T06:17:59.347Z,86.44
2024-05-09T06:20:34.689Z,86.74
2024-05-09T06:23:04.514Z,86.61
2024-05-09T06:25:31.465Z,86.75
2024-05-09T06:27:59.058Z,86.33
2024-05-09T06:30:34.442Z,86.76
2024-05-09T06:33:06.034Z,86.72
2024-05-09T06:35:33.527Z,86.87
2024-05-09T06:38:00.420Z,86.90
2024-05-09T06:40:36.064Z,86.27
2024-05-09T06:43:05.431Z,86.41
2024-05-09T06:45:32.000Z,86.17
2024-05-09T06:47:58.687Z,86.71
2024-05-09T06:50:28.516Z,86.97
2024-05-09T06:53:01.988Z,87.09
2024-05-09T06:55:28.738Z,87.15
2024-05-09T06:57:55.321Z,86.84
2024-05-09T07:00:27.750Z,86.09
2024-05-09T07:03:05.472Z,85.21
2024-05-09T07:05:33.351Z,84.58
2024-05-09T07:08:00.195Z,83.98
2024-05-09T07:10:32.878Z,83.74
2024-05-09T07:13:01.998Z,83.88
2024-05-09T07:15:28.649Z,83.51
2024-05-09T07:17:55.622Z,82.93
2024-05-09T07:20:31.720Z,81.99
2024-05-09T07:23:03.050Z,81.30
2024-05-09T07:25:30.056Z,81.47
2024-05-09T07:27:56.840Z,80.66
2024-05-09T07:30:32.505Z,79.85
2024-05-09T07:33:01.446Z,80.21
2024-05-09T07:35:28.817Z,80.41
2024-05-09T07:37:55.587Z,80.41
2024-05-09T07:40:31.855Z,79.67
2024-05-09T07:43:05.232Z,79.81
2024-05-09T07:45:48.173Z,78.93
2024-05-09T07:53:39.064Z,78.51
2024-05-09T07:56:09.624Z,77.50
2024-05-09T07:58:36.983Z,77.84
2024-05-09T08:01:03.949Z,76.12
2024-05-09T08:03:31.531Z,76.17
2024-05-09T08:05:58.155Z,75.85
2024-05-09T08:08:24.818Z,74.61
2024-05-09T08:10:51.789Z,74.45
2024-05-09T08:13:18.530Z,75.05
2024-05-09T08:15:45.341Z,73.55
2024-05-09T08:18:12.224Z,73.30
2024-05-09T08:20:40.280Z,73.72
2024-05-09T08:23:07.581Z,71.59
2024-05-09T08:25:34.189Z,71.59
2024-05-09T08:28:01.440Z,70.96
2024-05-09T08:30:33.762Z,71.86
2024-05-09T08:33:04.829Z,70.10
2024-05-09T08:35:32.257Z,70.47
2024-05-09T08:37:59.107Z,69.92
2024-05-09T08:40:33.361Z,70.33
2024-05-09T08:43:06.824Z,69.56
2024-05-09T08:45:35.790Z,68.98
2024-05-09T08:48:05.895Z,68.02
2024-05-09T08:50:38.694Z,67.22
2024-05-09T08:53:06.679Z,68.10
2024-05-09T08:55:33.528Z,67.32
2024-05-09T08:58:03.394Z,67.06
2024-05-09T09:00:36.789Z,66.22
2024-05-09T09:03:07.421Z,64.90
2024-05-09T09:05:38.424Z,65.80
2024-05-09T09:08:07.924Z,64.38
2024-05-09T09:10:35.655Z,63.52
2024-05-09T09:13:04.734Z,62.63
2024-05-09T09:15:31.914Z,63.81
2024-05-09T09:18:00.562Z,62.63
2024-05-09T09:20:35.329Z,61.80
2024-05-09T09:23:04.250Z,61.82
2024-05-09T09:25:31.130Z,60.76
2024-05-09T09:27:58.542Z,61.44
2024-05-09T09:30:35.068Z,60.69
2024-05-09T09:33:04.900Z,60.57
2024-05-09T09:35:32.044Z,59.99
2024-05-09T09:38:02.474Z,60.98
2024-05-09T09:40:36.122Z,59.70
2024-05-09T09:43:14.000Z,60.55
2024-05-09T09:45:43.426Z,59.74
2024-05-09T09:48:10.831Z,59.31
2024-05-09T09:50:37.863Z,57.68
2024-05-09T09:53:06.723Z,59.12
2024-05-09T09:55:33.506Z,60.19
2024-05-09T09:58:01.082Z,57.82
2024-05-09T10:00:32.939Z,56.55
2024-05-09T10:03:01.177Z,57.67
2024-05-09T10:05:28.774Z,56.99
2024-05-09T10:07:56.442Z,56.31
2024-05-09T10:10:31.338Z,55.82
2024-05-09T10:13:01.242Z,57.11
2024-05-09T10:15:28.103Z,57.02
2024-05-09T10:18:04.035Z,54.96
2024-05-09T10:20:46.385Z,55.02
2024-05-09T10:23:29.447Z,55.26
2024-05-09T10:26:01.553Z,57.56
2024-05-09T10:28:36.119Z,54.72
2024-05-09T10:31:09.830Z,55.14
2024-05-09T10:33:45.132Z,54.42
2024-05-09T10:36:21.929Z,53.56
2024-05-09T10:38:49.708Z,51.80
2024-05-09T10:41:17.333Z,52.64
2024-05-09T10:43:43.994Z,52.63
2024-05-09T10:46:11.616Z,53.10
2024-05-09T10:48:39.551Z,51.88
2024-05-09T10:51:06.361Z,53.67
2024-05-09T10:53:43.054Z,50.62
2024-05-09T10:56:10.333Z,52.10
2024-05-09T10:58:37.459Z,51.63
2024-05-09T11:01:07.035Z,53.05
2024-05-09T11:03:35.514Z,52.03
2024-05-09T11:06:02.828Z,52.00
2024-05-09T11:08:31.082Z,53.44
2024-05-09T11:10:59.565Z,52.20
2024-05-09T11:13:37.192Z,52.66
2024-05-09T11:16:06.472Z,51.12
2024-05-09T11:18:37.862Z,52.57
2024-05-09T11:21:12.219Z,51.34
2024-05-09T11:23:39.236Z,52.20
2024-05-09T11:26:06.824Z,52.67
2024-05-09T11:28:33.414Z,52.15
2024-05-09T11:31:08.364Z,52.07
2024-05-09T11:33:47.749Z,52.32
2024-05-09T11:36:14.777Z,53.22
2024-05-09T11:38:41.551Z,52.19
2024-05-09T11:41:08.401Z,51.38
2024-05-09T11:43:35.123Z,51.65
2024-05-09T11:46:03.732Z,51.85
2024-05-09T11:48:31.160Z,52.21
2024-05-09T11:50:58.190Z,51.28
2024-05-09T11:53:24.798Z,53.21
2024-05-09T11:55:51.496Z,54.19
2024-05-09T11:58:19.133Z,54.25
2024-05-09T12:00:47.028Z,54.06
2024-05-09T12:03:14.101Z,52.01
2024-05-09T12:05:41.083Z,53.69
2024-05-09T12:08:07.947Z,51.71
2024-05-09T12:10:36.229Z,50.81
2024-05-09T12:13:05.711Z,51.92
2024-05-09T12:15:36.242Z,50.86
2024-05-09T12:18:04.529Z,50.75
2024-05-09T12:20:36.957Z,50.09
2024-05-09T12:23:06.049Z,50.17
2024-05-09T12:25:32.879Z,50.26
2024-05-09T12:27:59.942Z,50.75
2024-05-09T12:30:35.442Z,51.90
2024-05-09T12:33:06.368Z,51.96
2024-05-09T12:35:33.250Z,51.09
2024-05-09T12:38:00.114Z,49.59
2024-05-09T12:40:34.710Z,50.73
2024-05-09T12:43:04.996Z,50.32
2024-05-09T12:45:31.990Z,51.42
2024-05-09T12:47:58.950Z,50.41
2024-05-09T12:50:32.255Z,48.56
2024-05-09T12:53:00.990Z,48.51
2024-05-09T12:55:28.545Z,48.57
2024-05-09T12:57:57.300Z,49.50
2024-05-09T13:00:31.100Z,49.60
2024-05-09T13:03:00.964Z,49.15
2024-05-09T13:05:28.152Z,47.88
2024-05-09T13:07:56.687Z,46.59
2024-05-09T13:10:31.135Z,46.42
2024-05-09T13:13:00.681Z,48.20
2024-05-09T13:15:28.030Z,46.99
2024-05-09T13:17:57.263Z,45.65
2024-05-09T13:20:32.065Z,48.69
2024-05-09T13:23:02.471Z,47.83
2024-05-09T13:25:29.343Z,48.42
2024-05-09T13:27:56.879Z,49.60
2024-05-09T13:30:29.887Z,48.15
2024-05-09T13:33:06.332Z,46.84
2024-05-09T13:35:35.221Z,48.22
2024-05-09T13:38:03.065Z,48.25
2024-05-09T13:40:34.209Z,49.22
2024-05-09T13:43:06.004Z,49.85
2024-05-09T13:45:33.538Z,50.16
2024-05-09T13:48:01.052Z,50.05
2024-05-09T13:50:33.817Z,50.27
2024-05-09T13:53:03.289Z,51.61
2024-05-09T13:55:30.019Z,51.08
2024-05-09T13:57:56.890Z,51.81
2024-05-09T14:00:37.770Z,51.21
2024-05-09T14:03:10.393Z,51.44
2024-05-09T14:05:37.191Z,51.76
2024-05-09T14:08:04.289Z,51.91
2024-05-09T14:10:32.308Z,52.32
2024-05-09T14:13:00.245Z,51.94
2024-05-09T14:15:27.029Z,51.76
2024-05-09T14:17:54.955Z,51.84
2024-05-09T14:22:51.104Z,53.04
2024-05-09T14:25:17.760Z,52.07
2024-05-09T14:27:44.512Z,52.64
2024-05-09T14:30:18.304Z,54.02
2024-05-09T14:32:52.727Z,53.40
2024-05-09T14:35:19.415Z,52.87
2024-05-09T14:37:46.062Z,52.58
2024-05-09T14:40:30.363Z,52.03
2024-05-09T14:43:03.191Z,53.52
2024-05-09T14:45:30.178Z,52.11
2024-05-09T14:47:57.209Z,51.25
2024-05-09T14:50:32.518Z,52.13
2024-05-09T14:53:03.535Z,50.93
2024-05-09T14:55:30.360Z,51.75
2024-05-09T14:57:57.016Z,51.76
2024-05-09T15:00:28.894Z,51.99
2024-05-09T15:03:00.379Z,50.35
2024-05-09T15:05:27.359Z,48.83
2024-05-09T15:07:54.119Z,50.15
2024-05-09T15:10:27.318Z,50.87
2024-05-09T15:13:01.047Z,49.46
2024-05-09T15:15:27.816Z,46.47
2024-05-09T15:17:55.233Z,45.31
2024-05-09T15:20:30.782Z,43.74
2024-05-09T15:23:01.868Z,46.75
2024-05-09T15:25:28.482Z,47.24
2024-05-09T15:27:55.242Z,45.44
2024-05-09T15:30:29.971Z,44.18
2024-05-09T15:32:59.185Z,44.25
2024-05-09T15:35:25.807Z,43.00
2024-05-09T15:37:52.468Z,42.93
2024-05-09T15:40:26.786Z,42.70
2024-05-09T15:43:02.603Z,43.86
2024-05-09T15:45:29.574Z,45.73
2024-05-09T15:47:57.245Z,43.37
2024-05-09T15:50:35.151Z,44.97
2024-05-09T15:53:06.027Z,46.44
2024-05-09T15:55:33.984Z,46.18
2024-05-09T15:58:02.008Z,45.48
2024-05-09T16:00:36.758Z,45.93
2024-05-09T16:03:07.452Z,44.12
2024-05-09T16:05:34.471Z,42.26
2024-05-09T16:08:01.366Z,43.73
2024-05-09T16:10:32.611Z,44.27
2024-05-09T16:13:01.046Z,44.92
2024-05-09T16:15:27.897Z,45.58
2024-05-09T16:17:55.162Z,45.08
2024-05-09T16:20:33.823Z,44.79
2024-05-09T16:23:06.035Z,44.34
2024-05-09T16:25:32.700Z,44.99
2024-05-09T16:27:59.864Z,44.02
2024-05-09T16:30:33.762Z,44.33
2024-05-09T16:33:03.389Z,42.73
2024-05-09T16:35:30.440Z,45.99
2024-05-09T16:37:57.417Z,43.08
2024-05-09T16:40:33.092Z,43.88
2024-05-09T16:43:04.721Z,45.53
2024-05-09T16:45:32.064Z,44.81
2024-05-09T16:47:59.710Z,44.63
2024-05-09T16:50:32.331Z,45.66
2024-05-09T16:53:01.946Z,46.98
2024-05-09T16:55:28.883Z,47.12
2024-05-09T16:57:56.783Z,46.23
2024-05-09T17:00:34.910Z,43.12
2024-05-09T17:03:07.974Z,46.26
2024-05-09T17:05:35.733Z,47.28
2024-05-09T17:08:02.992Z,47.24
2024-05-09T17:10:33.449Z,48.20
2024-05-09T17:13:03.558Z,47.95
2024-05-09T17:15:32.268Z,49.26
2024-05-09T17:17:59.206Z,51.19
2024-05-09T17:20:32.295Z,50.40
2024-05-09T17:23:03.137Z,50.95
2024-05-09T17:25:29.933Z,51.91
2024-05-09T17:27:57.194Z,51.59
2024-05-09T17:30:32.113Z,51.71
2024-05-09T17:33:03.653Z,53.66
2024-05-09T17:35:31.652Z,54.22
2024-05-09T17:37:59.598Z,54.77
2024-05-09T17:40:32.627Z,53.69
2024-05-09T17:43:03.203Z,54.04
2024-05-09T17:45:30.334Z,55.29
2024-05-09T17:47:57.288Z,54.83
2024-05-09T17:50:31.636Z,54.82
2024-05-09T17:53:02.664Z,55.45
2024-05-09T17:55:29.660Z,55.55
2024-05-09T17:57:56.554Z,56.74
2024-05-09T18:00:33.179Z,57.30
2024-05-09T18:03:06.418Z,56.92
2024-05-09T18:05:34.754Z,57.10
2024-05-09T18:08:01.647Z,57.67
2024-05-09T18:10:35.224Z,58.00
2024-05-09T18:13:05.814Z,57.82
2024-05-09T18:15:33.001Z,59.16
2024-05-09T18:18:00.135Z,59.41
2024-05-09T18:22:56.396Z,59.74
2024-05-09T18:25:23.058Z,59.58
2024-05-09T18:27:49.868Z,60.11
2024-05-09T18:30:24.151Z,60.81
2024-05-09T18:32:58.220Z,60.95
2024-05-09T18:35:24.829Z,61.25
2024-05-09T18:37:51.502Z,61.39
2024-05-09T18:40:24.884Z,61.38
2024-05-09T18:42:57.464Z,61.88
2024-05-09T18:45:24.054Z,62.64
2024-05-09T18:47:50.758Z,63.00
2024-05-09T18:50:24.785Z,63.07
2024-05-09T18:52:58.821Z,62.91
2024-05-09T18:55:25.410Z,63.43
2024-05-09T18:57:52.049Z,63.79
2024-05-09T19:00:31.019Z,64.23
2024-05-09T19:03:02.436Z,64.52
2024-05-09T19:05:29.146Z,63.70
2024-05-09T19:07:56.420Z,64.81
2024-05-09T19:10:26.320Z,64.88
2024-05-09T19:12:58.702Z,64.81
2024-05-09T19:15:25.339Z,65.28
2024-05-09T19:17:52.132Z,65.68
2024-05-09T19:20:25.434Z,65.77
2024-05-09T19:22:58.441Z,65.87
2024-05-09T19:25:25.088Z,65.54
2024-05-09T19:27:51.813Z,66.06
2024-05-09T19:30:28.981Z,66.09
2024-05-09T19:33:02.777Z,66.56
2024-05-09T19:35:29.431Z,66.80
2024-05-09T19:37:56.196Z,66.51
2024-05-09T19:40:29.031Z,66.62
2024-05-09T19:42:58.949Z,66.81
2024-05-09T19:45:25.622Z,66.83
2024-05-09T19:47:52.541Z,67.31
2024-05-09T19:50:26.798Z,67.52
2024-05-09T19:53:02.149Z,67.83
2024-05-09T19:55:28.939Z,68.05
2024-05-09T19:57:55.587Z,67.89
2024-05-09T20:00:29.443Z,68.67
2024-05-09T20:03:02.111Z,67.74
2024-05-09T20:05:31.070Z,68.53
2024-05-09T20:07:58.249Z,68.49
2024-05-09T20:10:31.102Z,68.17
2024-05-09T20:12:59.952Z,68.88
2024-05-09T20:15:26.787Z,68.28
2024-05-09T20:17:54.095Z,68.68
2024-05-09T20:20:31.928Z,68.59
2024-05-09T20:23:03.375Z,68.44
2024-05-09T20:25:30.117Z,68.83
2024-05-09T20:27:56.828Z,69.17
2024-05-09T20:30:31.217Z,69.14
2024-05-09T20:33:00.211Z,69.42
2024-05-09T20:35:35.029Z,69.56
2024-05-09T20:38:03.159Z,69.47
2024-05-09T20:40:35.149Z,69.27
2024-05-09T20:43:05.609Z,69.95
2024-05-09T20:45:32.778Z,70.12
2024-05-09T20:47:59.712Z,70.06
2024-05-09T20:50:36.327Z,69.75
2024-05-09T20:53:09.163Z,69.94
2024-05-09T20:55:36.009Z,69.65
2024-05-09T20:58:02.634Z,70.31
2024-05-09T21:00:35.560Z,69.66
2024-05-09T21:03:07.420Z,70.17
2024-05-09T21:05:35.187Z,70.13
2024-05-09T21:08:02.282Z,70.12
2024-05-09T21:10:32.820Z,70.64
2024-05-09T21:13:02.402Z,70.38
2024-05-09T21:15:29.727Z,71.19
2024-05-09T21:17:56.456Z,71.05
2024-05-09T21:20:28.899Z,71.04
2024-05-09T21:22:58.553Z,71.15
2024-05-09T21:25:25.493Z,70.89
2024-05-09T21:27:52.699Z,71.46
2024-05-09T21:30:31.200Z,71.08
2024-05-09T21:33:05.723Z,70.76
2024-05-09T21:35:32.599Z,70.96
2024-05-09T21:37:59.191Z,71.14
2024-05-09T21:40:33.317Z,71.84
2024-05-09T21:43:02.163Z,71.24
2024-05-09T21:45:28.839Z,71.48
2024-05-09T21:47:55.792Z,72.18
2024-05-09T21:50:28.389Z,71.96
2024-05-09T21:53:02.683Z,71.79
2024-05-09T21:55:29.914Z,72.42
2024-05-09T21:57:56.751Z,72.09
2024-05-09T22:00:31.968Z,72.65
2024-05-09T22:03:03.130Z,72.78
2024-05-09T22:05:30.108Z,72.30
2024-05-09T22:07:57.120Z,73.08
2024-05-09T22:10:30.517Z,72.48
2024-05-09T22:13:00.874Z,72.78
2024-05-09T22:15:27.531Z,72.60
2024-05-09T22:17:56.051Z,72.75
2024-05-09T22:20:29.417Z,72.72
2024-05-09T22:23:03.332Z,73.02
2024-05-09T22:25:31.174Z,72.84
2024-05-09T22:27:59.028Z,73.05
2024-05-09T22:30:34.189Z,73.64
2024-05-09T22:33:05.259Z,73.54
2024-05-09T22:35:32.685Z,73.35
2024-05-09T22:37:59.355Z,73.51
2024-05-09T22:40:38.015Z,73.95
2024-05-09T22:43:12.826Z,73.92
2024-05-09T22:45:39.705Z,73.85
2024-05-09T22:48:07.974Z,74.42
2024-05-09T22:50:34.896Z,74.76
2024-05-09T22:53:01.749Z,74.71
2024-05-09T22:55:28.430Z,74.75
2024-05-09T22:57:55.244Z,74.31
2024-05-09T23:00:30.453Z,74.24
2024-05-09T23:03:02.265Z,74.78
2024-05-09T23:05:29.534Z,74.54
2024-05-09T23:07:56.465Z,74.67
2024-05-09T23:10:31.055Z,74.93
2024-05-09T23:13:02.369Z,74.59
2024-05-09T23:15:29.032Z,74.75
2024-05-09T23:17:56.109Z,74.39
2024-05-09T23:20:33.220Z,75.29
2024-05-09T23:23:05.031Z,75.41
2024-05-09T23:25:31.649Z,75.34
2024-05-09T23:27:58.388Z,75.21
2024-05-09T23:30:34.214Z,75.55
2024-05-09T23:33:05.876Z,75.48
2024-05-09T23:35:32.690Z,75.78
2024-05-09T23:37:59.635Z,75.75
2024-05-09T23:40:37.013Z,76.03
2024-05-09T23:43:07.096Z,75.57
2024-05-09T23:45:34.120Z,75.82
2024-05-09T23:48:01.400Z,75.94
2024-05-09T23:50:34.491Z,76.18
2024-05-09T23:53:05.200Z,76.41
2024-05-09T23:55:32.496Z,75.92
2024-05-09T23:57:59.656Z,76.21
